PWSweather.com
Personal Weather Stations
Station Observations
KMNMADEL2
Andys Live Weather Stations, Madelia, MN 56062

Andys Live Weather StationsMadelia, MN 56062

Lat: 44.04636, Lon: -94.4163437

Elevation: 1006

Station Type: Wireless Davis Instruments Vantage Pro2 Plus

http://www.madeliasliveweather.com/

Latest ConditionsUpdated 4:20:01 AM CDT Wednesday, Apr 1, 2015
Currently Today's Max Today's Min Today's Average
Temperature 45.2°F7.3°C 52.8°F11.6°C 45.2°F7.3°C 48.2°F9.0°C
Dew Point 35.7°F2.1°C 37.9°F3.3°C 35.6°F2.0°C 36.5°F2.5°C
Winds 2.0 mph SSE3.2 kmh SSE 9.0 mph E14.5 kmh E - 3.2 mph 5.1 kmh
Wind Gusts 10.0 mph16.1 kmh 11.0 mph17.7 kmh - -
Humidity 69% 69% 56% 64%
Pressure 29.74 in1007.1 mb 29.82 in1009.8 mb 29.73 in1006.8 mb -
Hour Temp Dew Point Humidity Winds Wind Gusts Pressure Precip Precip Rate Daily Precip Total
04:20 AM 45.2°F7.3°C 35.7°F2.1°C 69% 2.0 mph SSE3.2 kmh SSE 10.0 mph16.1 kmh 29.74 in1007.1 mb 0.00 in0.0 mm 0.00 in0.0 mm 0.00 in0.0 mm
04:15 AM 45.3°F7.4°C 35.7°F2.1°C 69% 4.0 mph SSE6.4 kmh SSE 10.0 mph16.1 kmh 29.73 in1006.8 mb 0.00 in0.0 mm 0.00 in0.0 mm 0.00 in0.0 mm
04:10 AM 45.3°F7.4°C 35.7°F2.1°C 69% 2.0 mph SE3.2 kmh SE 8.0 mph12.9 kmh 29.74 in1007.1 mb 0.00 in0.0 mm 0.00 in0.0 mm 0.00 in0.0 mm
04:05 AM 45.3°F7.4°C 35.7°F2.1°C 69% 6.0 mph E9.7 kmh E 8.0 mph12.9 kmh 29.74 in1007.1 mb 0.00 in0.0 mm 0.00 in0.0 mm 0.00 in0.0 mm
04:00 AM 45.3°F7.4°C 35.7°F2.1°C 69% 4.0 mph SE6.4 kmh SE 7.0 mph11.3 kmh 29.74 in1007.1 mb 0.00 in0.0 mm 0.00 in0.0 mm 0.00 in0.0 mm
03:55 AM 45.4°F7.4°C 35.8°F2.1°C 69% 2.0 mph SE3.2 kmh SE 8.0 mph12.9 kmh 29.74 in1007.1 mb 0.00 in0.0 mm 0.00 in0.0 mm 0.00 in0.0 mm
03:50 AM 45.4°F7.4°C 35.8°F2.1°C 69% 3.0 mph ESE4.8 kmh ESE 8.0 mph12.9 kmh 29.74 in1007.1 mb 0.00 in0.0 mm 0.00 in0.0 mm 0.00 in0.0 mm
03:45 AM 45.5°F7.5°C 35.9°F2.2°C 69% 6.0 mph SE9.7 kmh SE 7.0 mph11.3 kmh 29.75 in1007.5 mb 0.00 in0.0 mm 0.00 in0.0 mm 0.00 in0.0 mm
03:40 AM 45.5°F7.5°C 35.9°F2.2°C 69% 1.0 mph SE1.6 kmh SE 7.0 mph11.3 kmh 29.75 in1007.5 mb 0.00 in0.0 mm 0.00 in0.0 mm 0.00 in0.0 mm
03:35 AM 45.7°F7.6°C 35.8°F2.1°C 68% 5.0 mph SW8.0 kmh SW 7.0 mph11.3 kmh 29.75 in1007.5 mb 0.00 in0.0 mm 0.00 in0.0 mm 0.00 in0.0 mm
03:30 AM 45.7°F7.6°C 35.8°F2.1°C 68% 4.0 mph SE6.4 kmh SE 7.0 mph11.3 kmh 29.76 in1007.8 mb 0.00 in0.0 mm 0.00 in0.0 mm 0.00 in0.0 mm
03:25 AM 45.7°F7.6°C 35.8°F2.1°C 68% 2.0 mph SE3.2 kmh SE 7.0 mph11.3 kmh 29.76 in1007.8 mb 0.00 in0.0 mm 0.00 in0.0 mm 0.00 in0.0 mm
03:20 AM 45.9°F7.7°C 35.6°F2.0°C 67% Calm Calm 7.0 mph11.3 kmh 29.76 in1007.8 mb 0.00 in0.0 mm 0.00 in0.0 mm 0.00 in0.0 mm
03:15 AM 46.0°F7.8°C 35.7°F2.1°C 67% 5.0 mph SE8.0 kmh SE 7.0 mph11.3 kmh 29.76 in1007.8 mb 0.00 in0.0 mm 0.00 in0.0 mm 0.00 in0.0 mm
03:10 AM 46.0°F7.8°C 35.7°F2.1°C 67% 1.0 mph SE1.6 kmh SE 7.0 mph11.3 kmh 29.76 in1007.8 mb 0.00 in0.0 mm 0.00 in0.0 mm 0.00 in0.0 mm
03:05 AM 46.1°F7.8°C 35.8°F2.1°C 67% 1.0 mph ESE1.6 kmh ESE 5.0 mph8.0 kmh 29.76 in1007.8 mb 0.00 in0.0 mm 0.00 in0.0 mm 0.00 in0.0 mm
03:00 AM 46.1°F7.8°C 35.8°F2.1°C 67% 2.0 mph ESE3.2 kmh ESE 4.0 mph6.4 kmh 29.76 in1007.8 mb 0.00 in0.0 mm 0.00 in0.0 mm 0.00 in0.0 mm
02:55 AM 46.2°F7.9°C 35.9°F2.2°C 67% 3.0 mph ESE4.8 kmh ESE 9.0 mph14.5 kmh 29.76 in1007.8 mb 0.00 in0.0 mm 0.00 in0.0 mm 0.00 in0.0 mm
02:50 AM 46.3°F7.9°C 36.0°F2.2°C 67% 4.0 mph ESE6.4 kmh ESE 9.0 mph14.5 kmh 29.77 in1008.1 mb 0.00 in0.0 mm 0.00 in0.0 mm 0.00 in0.0 mm
02:45 AM 46.4°F8.0°C 35.7°F2.1°C 66% 2.0 mph SE3.2 kmh SE 9.0 mph14.5 kmh 29.77 in1008.1 mb 0.00 in0.0 mm 0.00 in0.0 mm 0.00 in0.0 mm
02:40 AM 46.6°F8.1°C 35.9°F2.2°C 66% 3.0 mph SE4.8 kmh SE 9.0 mph14.5 kmh 29.77 in1008.1 mb 0.00 in0.0 mm 0.00 in0.0 mm 0.00 in0.0 mm
02:35 AM 46.7°F8.2°C 36.0°F2.2°C 66% 5.0 mph ESE8.0 kmh ESE 9.0 mph14.5 kmh 29.77 in1008.1 mb 0.00 in0.0 mm 0.00 in0.0 mm 0.00 in0.0 mm
02:30 AM 46.9°F8.3°C 36.2°F2.3°C 66% 1.0 mph SE1.6 kmh SE 4.0 mph6.4 kmh 29.78 in1008.5 mb 0.00 in0.0 mm 0.00 in0.0 mm 0.00 in0.0 mm
02:25 AM 47.0°F8.3°C 35.9°F2.2°C 65% 3.0 mph SE4.8 kmh SE 9.0 mph14.5 kmh 29.78 in1008.5 mb 0.00 in0.0 mm 0.00 in0.0 mm 0.00 in0.0 mm
02:20 AM 47.1°F8.4°C 36.0°F2.2°C 65% 2.0 mph E3.2 kmh E 9.0 mph14.5 kmh 29.78 in1008.5 mb 0.00 in0.0 mm 0.00 in0.0 mm 0.00 in0.0 mm
02:15 AM 47.3°F8.5°C 36.2°F2.3°C 65% 6.0 mph SE9.7 kmh SE 9.0 mph14.5 kmh 29.78 in1008.5 mb 0.00 in0.0 mm 0.00 in0.0 mm 0.00 in0.0 mm
02:10 AM 47.6°F8.7°C 36.0°F2.2°C 64% 1.0 mph SE1.6 kmh SE 6.0 mph9.7 kmh 29.78 in1008.5 mb 0.00 in0.0 mm 0.00 in0.0 mm 0.00 in0.0 mm
02:05 AM 47.9°F8.8°C 36.3°F2.4°C 64% 2.0 mph ESE3.2 kmh ESE 6.0 mph9.7 kmh 29.78 in1008.5 mb 0.00 in0.0 mm 0.00 in0.0 mm 0.00 in0.0 mm
02:00 AM 48.1°F8.9°C 36.1°F2.3°C 63% Calm Calm 6.0 mph9.7 kmh 29.78 in1008.5 mb 0.00 in0.0 mm 0.00 in0.0 mm 0.00 in0.0 mm
01:55 AM 48.2°F9.0°C 36.2°F2.3°C 63% 3.0 mph ESE4.8 kmh ESE 8.0 mph12.9 kmh 29.79 in1008.8 mb 0.00 in0.0 mm 0.00 in0.0 mm 0.00 in0.0 mm
01:50 AM 48.4°F9.1°C 36.4°F2.4°C 63% 1.0 mph SE1.6 kmh SE 8.0 mph12.9 kmh 29.79 in1008.8 mb 0.00 in0.0 mm 0.00 in0.0 mm 0.00 in0.0 mm
01:45 AM 48.7°F9.3°C 36.7°F2.6°C 63% 2.0 mph SE3.2 kmh SE 8.0 mph12.9 kmh 29.79 in1008.8 mb 0.00 in0.0 mm 0.00 in0.0 mm 0.00 in0.0 mm
01:40 AM 48.8°F9.3°C 36.4°F2.4°C 62% 2.0 mph SE3.2 kmh SE 8.0 mph12.9 kmh 29.79 in1008.8 mb 0.00 in0.0 mm 0.00 in0.0 mm 0.00 in0.0 mm
01:35 AM 49.1°F9.5°C 36.7°F2.6°C 62% 3.0 mph ESE4.8 kmh ESE 8.0 mph12.9 kmh 29.79 in1008.8 mb 0.00 in0.0 mm 0.00 in0.0 mm 0.00 in0.0 mm
01:30 AM 49.2°F9.6°C 36.8°F2.7°C 62% 4.0 mph ESE6.4 kmh ESE 5.0 mph8.0 kmh 29.79 in1008.8 mb 0.00 in0.0 mm 0.00 in0.0 mm 0.00 in0.0 mm
01:25 AM 49.4°F9.7°C 36.9°F2.7°C 62% 3.0 mph SE4.8 kmh SE 11.0 mph17.7 kmh 29.79 in1008.8 mb 0.00 in0.0 mm 0.00 in0.0 mm 0.00 in0.0 mm
01:20 AM 49.7°F9.8°C 37.2°F2.9°C 62% 5.0 mph ESE8.0 kmh ESE 11.0 mph17.7 kmh 29.79 in1008.8 mb 0.00 in0.0 mm 0.00 in0.0 mm 0.00 in0.0 mm
01:15 AM 49.9°F9.9°C 37.0°F2.8°C 61% 5.0 mph ESE8.0 kmh ESE 11.0 mph17.7 kmh 29.80 in1009.1 mb 0.00 in0.0 mm 0.00 in0.0 mm 0.00 in0.0 mm
01:10 AM 50.1°F10.1°C 37.2°F2.9°C 61% 5.0 mph SE8.0 kmh SE 10.0 mph16.1 kmh 29.80 in1009.1 mb 0.00 in0.0 mm 0.00 in0.0 mm 0.00 in0.0 mm
01:05 AM 50.3°F10.2°C 37.4°F3.0°C 61% 4.0 mph SE6.4 kmh SE 8.0 mph12.9 kmh 29.80 in1009.1 mb 0.00 in0.0 mm 0.00 in0.0 mm 0.00 in0.0 mm
01:00 AM 50.5°F10.3°C 37.6°F3.1°C 61% 3.0 mph SE4.8 kmh SE 5.0 mph8.0 kmh 29.80 in1009.1 mb 0.00 in0.0 mm 0.00 in0.0 mm 0.00 in0.0 mm
12:55 AM 50.8°F10.4°C 37.4°F3.0°C 60% 4.0 mph ESE6.4 kmh ESE 10.0 mph16.1 kmh 29.81 in1009.5 mb 0.00 in0.0 mm 0.00 in0.0 mm 0.00 in0.0 mm
12:50 AM 51.1°F10.6°C 37.7°F3.2°C 60% 9.0 mph E14.5 kmh E 10.0 mph16.1 kmh 29.80 in1009.1 mb 0.00 in0.0 mm 0.00 in0.0 mm 0.00 in0.0 mm
12:45 AM 51.4°F10.8°C 37.6°F3.1°C 59% 3.0 mph SE4.8 kmh SE 10.0 mph16.1 kmh 29.81 in1009.5 mb 0.00 in0.0 mm 0.00 in0.0 mm 0.00 in0.0 mm
12:40 AM 51.6°F10.9°C 37.8°F3.2°C 59% 5.0 mph SE8.0 kmh SE 9.0 mph14.5 kmh 29.81 in1009.5 mb 0.00 in0.0 mm 0.00 in0.0 mm 0.00 in0.0 mm
12:35 AM 51.7°F10.9°C 37.4°F3.0°C 58% Calm Calm 7.0 mph11.3 kmh 29.81 in1009.5 mb 0.00 in0.0 mm 0.00 in0.0 mm 0.00 in0.0 mm
12:30 AM 51.8°F11.0°C 37.5°F3.1°C 58% 4.0 mph ESE6.4 kmh ESE 7.0 mph11.3 kmh 29.81 in1009.5 mb 0.00 in0.0 mm 0.00 in0.0 mm 0.00 in0.0 mm
12:25 AM 52.1°F11.2°C 37.8°F3.2°C 58% 4.0 mph ESE6.4 kmh ESE 11.0 mph17.7 kmh 29.81 in1009.5 mb 0.00 in0.0 mm 0.00 in0.0 mm 0.00 in0.0 mm
12:20 AM 52.3°F11.3°C 37.5°F3.1°C 57% 4.0 mph ESE6.4 kmh ESE 11.0 mph17.7 kmh 29.81 in1009.5 mb 0.00 in0.0 mm 0.00 in0.0 mm 0.00 in0.0 mm
12:15 AM 52.4°F11.3°C 37.6°F3.1°C 57% 3.0 mph SE4.8 kmh SE 11.0 mph17.7 kmh 29.81 in1009.5 mb 0.00 in0.0 mm 0.00 in0.0 mm 0.00 in0.0 mm
12:10 AM 52.5°F11.4°C 37.7°F3.2°C 57% 3.0 mph ESE4.8 kmh ESE 9.0 mph14.5 kmh 29.81 in1009.5 mb 0.00 in0.0 mm 0.00 in0.0 mm 0.00 in0.0 mm
12:05 AM 52.7°F11.5°C 37.9°F3.3°C 57% 3.0 mph E4.8 kmh E 8.0 mph12.9 kmh 29.82 in1009.8 mb 0.00 in0.0 mm 0.00 in0.0 mm 0.00 in0.0 mm
12:00 AM 52.8°F11.6°C 37.6°F3.1°C 56% 4.0 mph ESE6.4 kmh ESE 8.0 mph12.9 kmh 29.82 in1009.8 mb 0.00 in0.0 mm 0.00 in0.0 mm 0.00 in0.0 mm